Time;durP1;ratioP1;P1;durP2;ratioP2;P2;SDS_P1;SDS_P2;PMS_P1;PMS_P2;Temp;Humidity;BMP_temperature;BMP_pressure;BME280_temperature;BME280_humidity;BME280_pressure;Samples;Min_cycle;Max_cycle;Signal;HPM_P1;HPM_P2
2022/01/27 00:00:36;;;;;;;;;;;2.20;99.90;;;;;;4926352;28;21123;-68
2022/01/27 00:03:22;;;;;;;;;;;2.10;99.90;;;;;;4928240;28;20052;-68
2022/01/27 00:05:52;;;;;;;;;;;2.10;99.90;;;;;;4926319;28;20059;-68
2022/01/27 00:08:24;;;;;;;;;;;2.10;99.90;;;;;;4926616;28;20070;-69
2022/01/27 00:10:57;;;;;;;;;;;2.10;99.90;;;;;;4942320;28;21176;-68
2022/01/27 00:13:29;;;;;;;;;;;2.10;99.90;;;;;;4943766;28;20210;-68
2022/01/27 00:16:14;;;;;;;;;;;2.10;99.90;;;;;;4926787;28;20070;-68
2022/01/27 00:18:42;;;;;;;;;;;2.10;99.90;;;;;;4926311;28;20053;-68
2022/01/27 00:21:09;;;;;;;;;;;2.10;99.90;;;;;;4925382;28;21029;-68
2022/01/27 00:23:37;;;;;;;;;;;2.10;99.90;;;;;;4927154;28;21139;-68
2022/01/27 00:26:05;;;;;;;;;;;2.10;99.90;;;;;;4926043;28;21193;-69
2022/01/27 00:28:32;;;;;;;;;;;2.10;99.90;;;;;;4942886;28;20061;-68
2022/01/27 00:30:59;;;;;;;;;;;2.10;99.90;;;;;;4925902;28;20060;-68
2022/01/27 00:33:27;;;;;;;;;;;2.10;99.90;;;;;;4926615;28;20070;-68
2022/01/27 00:35:54;;;;;;;;;;;2.10;99.90;;;;;;4925672;28;20061;-68
2022/01/27 00:38:21;;;;;;;;;;;2.00;99.90;;;;;;4927235;28;20148;-69
2022/01/27 00:40:48;;;;;;;;;;;2.00;99.90;;;;;;4925296;28;20156;-68
2022/01/27 00:43:17;;;;;;;;;;;2.00;99.90;;;;;;4926266;28;20318;-68
2022/01/27 00:45:44;;;;;;;;;;;2.00;99.90;;;;;;4942333;28;21041;-68
2022/01/27 00:48:14;;;;;;;;;;;2.00;99.90;;;;;;4926049;28;20225;-68
2022/01/27 00:50:41;;;;;;;;;;;2.00;99.90;;;;;;4925532;28;20225;-68
2022/01/27 00:53:23;;;;;;;;;;;2.00;99.90;;;;;;4926734;28;20096;-68
2022/01/27 00:55:51;;;;;;;;;;;2.00;99.90;;;;;;4926437;28;20134;-69
2022/01/27 00:58:34;;;;;;;;;;;2.10;99.90;;;;;;4925861;28;21138;-68
2022/01/27 01:01:06;;;;;;;;;;;2.10;99.90;;;;;;4941599;28;20053;-68
2022/01/27 01:03:37;;;;;;;;;;;2.10;99.90;;;;;;4925918;28;20060;-68
2022/01/27 01:06:19;;;;;;;;;;;2.10;99.90;;;;;;4925831;28;20273;-68
2022/01/27 01:12:01;;;;;;;;;;;2.10;99.90;;;;;;4942788;28;20069;-68
2022/01/27 01:14:37;;;;;;;;;;;2.10;99.90;;;;;;4926337;28;20053;-69
2022/01/27 01:17:11;;;;;;;;;;;2.10;99.90;;;;;;4942648;28;20216;-67
2022/01/27 01:19:53;;;;;;;;;;;2.10;99.90;;;;;;4925737;28;20543;-68
2022/01/27 01:30:49;;;;;;;;;;;2.20;99.90;;;;;;4941533;28;20088;-69
2022/01/27 01:33:21;;;;;;;;;;;2.20;99.90;;;;;;4942446;28;20059;-68
2022/01/27 01:35:50;;;;;;;;;;;2.20;99.90;;;;;;4925888;28;21686;-68
2022/01/27 01:38:19;;;;;;;;;;;2.20;99.90;;;;;;4926339;28;20052;-68
2022/01/27 01:40:46;;;;;;;;;;;2.20;99.90;;;;;;4924737;28;20059;-68
2022/01/27 01:43:13;;;;;;;;;;;2.20;99.90;;;;;;4926480;28;20061;-68
2022/01/27 01:45:42;;;;;;;;;;;2.20;99.90;;;;;;4926325;28;20053;-68
2022/01/27 01:48:09;;;;;;;;;;;2.20;99.90;;;;;;4942719;28;20070;-68
2022/01/27 01:50:36;;;;;;;;;;;2.20;99.90;;;;;;4925010;28;21183;-69
2022/01/27 01:53:04;;;;;;;;;;;2.20;99.90;;;;;;4942393;28;20053;-68
2022/01/27 01:55:31;;;;;;;;;;;2.30;99.90;;;;;;4926708;28;20054;-69
2022/01/27 01:57:58;;;;;;;;;;;2.30;99.90;;;;;;4925746;28;20070;-68
2022/01/27 02:00:26;;;;;;;;;;;2.30;99.90;;;;;;4926121;28;20142;-69
2022/01/27 02:02:55;;;;;;;;;;;2.30;99.90;;;;;;4939355;28;21116;-68
2022/01/27 02:05:26;;;;;;;;;;;2.30;99.90;;;;;;4960641;28;21062;-68
2022/01/27 02:08:12;;;;;;;;;;;2.30;99.90;;;;;;4944783;28;20066;-68
2022/01/27 02:17:58;;;;;;;;;;;2.30;99.90;;;;;;4943976;28;20270;-69
2022/01/27 02:19:10;;;;;;;;;;;2.30;99.90;;;;;;4957559;28;20043;-68
2022/01/27 02:21:46;;;;;;;;;;;2.30;99.90;;;;;;4960719;28;20104;-68
2022/01/27 02:24:14;;;;;;;;;;;2.30;99.90;;;;;;4960759;28;20074;-68
2022/01/27 02:26:43;;;;;;;;;;;2.30;99.90;;;;;;4959487;28;21865;-69
2022/01/27 02:29:11;;;;;;;;;;;2.30;99.90;;;;;;4943172;28;21186;-68
2022/01/27 02:31:38;;;;;;;;;;;2.30;99.90;;;;;;4944337;28;20089;-68
2022/01/27 02:34:06;;;;;;;;;;;2.30;99.90;;;;;;4944482;28;20109;-68
2022/01/27 02:36:34;;;;;;;;;;;2.30;99.90;;;;;;4944890;28;20086;-69
2022/01/27 02:39:04;;;;;;;;;;;2.30;99.90;;;;;;4943421;28;20077;-68
2022/01/27 02:41:32;;;;;;;;;;;2.30;99.90;;;;;;4961385;28;21054;-69
2022/01/27 02:44:00;;;;;;;;;;;2.30;99.90;;;;;;4944396;28;20176;-68
2022/01/27 02:46:30;;;;;;;;;;;2.30;99.90;;;;;;4944195;28;20060;-68
2022/01/27 02:48:57;;;;;;;;;;;2.30;99.90;;;;;;4943484;28;21140;-68
2022/01/27 02:51:25;;;;;;;;;;;2.30;99.90;;;;;;4944008;28;21189;-69
2022/01/27 02:53:52;;;;;;;;;;;2.30;99.90;;;;;;4944109;28;20074;-68
2022/01/27 02:56:21;;;;;;;;;;;2.30;99.90;;;;;;4943563;28;20151;-68
2022/01/27 02:58:48;;;;;;;;;;;2.30;99.90;;;;;;4959060;28;20079;-68
2022/01/27 03:01:18;;;;;;;;;;;2.30;99.90;;;;;;4944103;28;20093;-68
2022/01/27 03:03:45;;;;;;;;;;;2.40;99.90;;;;;;4944149;28;20293;-68
2022/01/27 03:06:13;;;;;;;;;;;2.40;99.90;;;;;;4943490;28;21230;-68
2022/01/27 03:08:40;;;;;;;;;;;2.40;99.90;;;;;;4943535;28;20185;-66
2022/01/27 03:11:08;;;;;;;;;;;2.40;99.90;;;;;;4942835;28;20113;-68
2022/01/27 03:13:37;;;;;;;;;;;2.40;99.90;;;;;;4959757;28;21133;-68
2022/01/27 03:16:06;;;;;;;;;;;2.40;99.90;;;;;;4959658;28;20079;-68
2022/01/27 03:18:33;;;;;;;;;;;2.40;99.90;;;;;;4943879;28;20142;-68
2022/01/27 03:21:00;;;;;;;;;;;2.50;99.90;;;;;;4942674;28;20086;-68
2022/01/27 03:23:27;;;;;;;;;;;2.50;99.90;;;;;;4943493;28;20075;-68
2022/01/27 03:25:54;;;;;;;;;;;2.50;99.90;;;;;;4942936;28;21408;-68
2022/01/27 03:28:25;;;;;;;;;;;2.50;99.90;;;;;;4946748;28;20141;-68
2022/01/27 03:30:54;;;;;;;;;;;2.50;99.90;;;;;;4946092;28;21275;-68
2022/01/27 03:33:21;;;;;;;;;;;2.60;99.90;;;;;;4963848;28;20160;-68
2022/01/27 03:35:48;;;;;;;;;;;2.70;99.90;;;;;;4947341;28;20471;-68
2022/01/27 03:38:15;;;;;;;;;;;2.70;99.90;;;;;;4946576;28;21144;-68
2022/01/27 03:40:42;;;;;;;;;;;2.70;99.90;;;;;;4946291;28;20078;-68
2022/01/27 03:43:11;;;;;;;;;;;2.80;99.90;;;;;;4946829;28;20069;-68
2022/01/27 03:45:38;;;;;;;;;;;2.80;99.90;;;;;;4963352;28;20068;-68
2022/01/27 03:48:07;;;;;;;;;;;2.90;99.90;;;;;;4947589;28;20090;-68
2022/01/27 03:50:34;;;;;;;;;;;2.90;99.90;;;;;;4962248;28;20079;-68
2022/01/27 03:53:02;;;;;;;;;;;3.00;99.90;;;;;;4947085;28;20061;-68
2022/01/27 03:55:29;;;;;;;;;;;3.10;99.90;;;;;;4946784;28;21283;-67
2022/01/27 03:57:56;;;;;;;;;;;3.10;99.90;;;;;;4947012;28;21125;-68
2022/01/27 04:00:23;;;;;;;;;;;3.20;99.90;;;;;;4945939;28;20144;-68
2022/01/27 04:03:02;;;;;;;;;;;3.20;99.90;;;;;;4946809;28;21174;-68
2022/01/27 04:05:36;;;;;;;;;;;3.30;99.90;;;;;;4962855;28;20064;-67
2022/01/27 04:08:04;;;;;;;;;;;3.30;99.90;;;;;;4963327;28;20062;-68
2022/01/27 04:10:31;;;;;;;;;;;3.40;99.90;;;;;;4945641;28;20229;-68
2022/01/27 04:12:58;;;;;;;;;;;3.40;99.90;;;;;;4946517;28;20077;-68
2022/01/27 04:15:25;;;;;;;;;;;3.40;99.90;;;;;;4945787;28;20068;-68
2022/01/27 04:17:52;;;;;;;;;;;3.40;99.90;;;;;;4962645;28;21154;-68
2022/01/27 04:20:20;;;;;;;;;;;3.50;99.90;;;;;;4945544;28;21270;-68
2022/01/27 04:22:49;;;;;;;;;;;3.50;99.90;;;;;;4946608;28;20155;-68
2022/01/27 04:25:16;;;;;;;;;;;3.60;99.90;;;;;;4962206;28;20061;-68
2022/01/27 04:27:47;;;;;;;;;;;3.60;99.90;;;;;;4946494;28;20152;-68
2022/01/27 04:30:16;;;;;;;;;;;3.60;99.90;;;;;;4944734;28;20069;-68
2022/01/27 04:32:48;;;;;;;;;;;3.60;99.90;;;;;;4946962;28;20070;-68
2022/01/27 04:35:18;;;;;;;;;;;3.70;99.90;;;;;;4946093;28;20183;-68
2022/01/27 04:37:57;;;;;;;;;;;3.70;99.90;;;;;;4946540;28;20077;-68
2022/01/27 04:40:32;;;;;;;;;;;3.70;99.90;;;;;;4944863;28;20061;-68
2022/01/27 04:43:06;;;;;;;;;;;3.80;99.90;;;;;;4958805;28;20208;-67
2022/01/27 04:45:42;;;;;;;;;;;3.80;99.90;;;;;;4923091;28;20066;-68
2022/01/27 04:48:13;;;;;;;;;;;3.90;99.90;;;;;;4907463;29;20068;-68
2022/01/27 04:50:40;;;;;;;;;;;3.90;99.90;;;;;;4923409;28;20068;-68
2022/01/27 04:53:13;;;;;;;;;;;3.90;99.90;;;;;;4907596;29;20089;-68
2022/01/27 04:55:42;;;;;;;;;;;4.00;99.90;;;;;;4923682;28;20061;-69
2022/01/27 04:58:11;;;;;;;;;;;4.00;99.90;;;;;;4907370;28;20165;-68
2022/01/27 05:00:39;;;;;;;;;;;4.10;99.90;;;;;;4922130;28;20062;-68
2022/01/27 05:03:14;;;;;;;;;;;4.10;99.90;;;;;;4923073;28;20237;-68
2022/01/27 05:05:41;;;;;;;;;;;4.10;99.90;;;;;;4907908;28;20068;-68
2022/01/27 05:08:15;;;;;;;;;;;4.10;99.90;;;;;;4906980;28;20160;-68
2022/01/27 05:10:53;;;;;;;;;;;4.10;99.90;;;;;;4922190;28;20070;-68
2022/01/27 05:13:23;;;;;;;;;;;4.10;99.90;;;;;;4907230;29;20069;-68
2022/01/27 05:15:50;;;;;;;;;;;4.10;99.90;;;;;;4922580;28;20077;-68
2022/01/27 05:18:17;;;;;;;;;;;4.20;99.90;;;;;;4907152;29;20070;-67
2022/01/27 05:20:44;;;;;;;;;;;4.20;99.90;;;;;;4922440;28;20069;-68
2022/01/27 05:23:12;;;;;;;;;;;4.30;99.90;;;;;;4923235;28;20071;-68
2022/01/27 05:25:39;;;;;;;;;;;4.30;99.90;;;;;;4922134;28;20096;-68
2022/01/27 05:28:08;;;;;;;;;;;4.30;99.90;;;;;;4923210;28;20071;-69
2022/01/27 05:30:36;;;;;;;;;;;4.40;99.90;;;;;;4905751;29;21159;-68
2022/01/27 05:33:03;;;;;;;;;;;4.40;99.90;;;;;;4923136;28;21308;-66
2022/01/27 05:35:30;;;;;;;;;;;4.40;99.90;;;;;;4922154;28;20160;-68
2022/01/27 05:37:57;;;;;;;;;;;4.40;99.90;;;;;;4923213;28;20075;-68
2022/01/27 05:40:24;;;;;;;;;;;4.50;99.90;;;;;;4921733;28;20160;-68
2022/01/27 05:42:51;;;;;;;;;;;4.50;99.90;;;;;;4922789;28;21050;-68
2022/01/27 05:45:20;;;;;;;;;;;4.50;99.90;;;;;;4922563;28;20061;-68
2022/01/27 05:47:47;;;;;;;;;;;4.50;99.90;;;;;;4907380;28;20343;-68
2022/01/27 05:50:14;;;;;;;;;;;4.60;99.90;;;;;;4905093;28;20070;-68
2022/01/27 05:52:41;;;;;;;;;;;4.60;99.90;;;;;;4922333;28;20125;-68
2022/01/27 05:55:09;;;;;;;;;;;4.60;99.90;;;;;;4923121;28;20070;-68
2022/01/27 05:57:36;;;;;;;;;;;4.70;99.90;;;;;;4906606;28;20077;-67
2022/01/27 06:00:04;;;;;;;;;;;4.80;99.90;;;;;;4905691;29;21095;-68
2022/01/27 06:02:40;;;;;;;;;;;4.80;99.90;;;;;;4919152;28;20107;-68
2022/01/27 06:05:08;;;;;;;;;;;4.80;99.90;;;;;;4944578;28;20079;-69
2022/01/27 06:07:35;;;;;;;;;;;4.80;99.90;;;;;;4952911;28;20308;-68
2022/01/27 06:10:03;;;;;;;;;;;4.70;99.90;;;;;;4943912;28;21213;-68
2022/01/27 06:12:30;;;;;;;;;;;4.70;99.90;;;;;;4926412;28;20312;-68
2022/01/27 06:14:58;;;;;;;;;;;4.70;99.90;;;;;;4924782;28;20079;-68
2022/01/27 06:17:25;;;;;;;;;;;4.70;99.90;;;;;;4941495;28;20172;-68
2022/01/27 06:19:55;;;;;;;;;;;4.70;99.90;;;;;;4931456;28;20180;-69
2022/01/27 06:22:22;;;;;;;;;;;4.70;99.90;;;;;;4961035;28;21054;-68
2022/01/27 06:24:50;;;;;;;;;;;4.60;99.90;;;;;;4943420;28;20069;-69
2022/01/27 06:27:17;;;;;;;;;;;4.60;99.90;;;;;;4965494;28;20154;-67
2022/01/27 06:29:44;;;;;;;;;;;4.60;99.90;;;;;;4946483;28;21255;-68
2022/01/27 06:32:11;;;;;;;;;;;4.50;99.90;;;;;;4946949;28;21065;-67
2022/01/27 06:34:38;;;;;;;;;;;4.50;99.90;;;;;;4945939;28;20069;-68
2022/01/27 06:37:07;;;;;;;;;;;4.50;99.90;;;;;;4937285;28;21038;-67
2022/01/27 06:39:34;;;;;;;;;;;4.60;99.90;;;;;;4926562;28;20081;-68
2022/01/27 06:42:05;;;;;;;;;;;4.50;99.90;;;;;;4927711;28;20061;-69
2022/01/27 06:44:32;;;;;;;;;;;4.50;99.90;;;;;;4927168;28;20065;-68
2022/01/27 06:46:59;;;;;;;;;;;4.50;99.90;;;;;;4928912;28;20107;-69
2022/01/27 06:49:26;;;;;;;;;;;4.50;99.90;;;;;;4937448;28;20286;-69
2022/01/27 06:51:53;;;;;;;;;;;4.50;99.90;;;;;;4945350;28;20086;-70
2022/01/27 06:54:22;;;;;;;;;;;4.60;99.90;;;;;;4941803;28;20069;-69
2022/01/27 06:56:49;;;;;;;;;;;4.60;99.90;;;;;;4953666;28;20292;-68
2022/01/27 06:59:16;;;;;;;;;;;4.60;99.90;;;;;;4961641;28;21108;-69
2022/01/27 07:01:43;;;;;;;;;;;4.60;99.90;;;;;;4948048;28;20070;-69
2022/01/27 07:04:10;;;;;;;;;;;4.70;99.90;;;;;;4938053;28;20079;-69
2022/01/27 07:06:39;;;;;;;;;;;4.60;99.90;;;;;;4942118;28;21094;-69
2022/01/27 07:09:06;;;;;;;;;;;4.60;99.90;;;;;;4933824;28;20078;-69
2022/01/27 07:11:35;;;;;;;;;;;4.60;99.90;;;;;;4928801;28;20070;-68
2022/01/27 07:14:02;;;;;;;;;;;4.60;99.90;;;;;;4944575;28;20070;-69
2022/01/27 07:16:29;;;;;;;;;;;4.60;99.90;;;;;;4928533;28;20069;-68
2022/01/27 07:18:56;;;;;;;;;;;4.70;99.90;;;;;;4943308;28;20084;-68
2022/01/27 07:21:23;;;;;;;;;;;4.70;99.90;;;;;;4945002;28;20071;-69
2022/01/27 07:23:51;;;;;;;;;;;4.70;99.90;;;;;;4943063;28;20061;-68
2022/01/27 07:26:24;;;;;;;;;;;4.70;99.90;;;;;;4930184;28;21253;-68
2022/01/27 07:28:53;;;;;;;;;;;4.80;99.90;;;;;;4929829;28;21263;-67
2022/01/27 07:31:20;;;;;;;;;;;4.80;99.90;;;;;;4909579;28;20085;-68
2022/01/27 07:33:48;;;;;;;;;;;4.90;99.90;;;;;;4925088;28;20079;-69
2022/01/27 07:36:15;;;;;;;;;;;4.90;99.90;;;;;;4932941;28;20094;-69
2022/01/27 07:38:43;;;;;;;;;;;4.90;99.90;;;;;;4934883;28;20079;-69
2022/01/27 07:41:10;;;;;;;;;;;5.00;99.90;;;;;;4928921;28;20173;-69
2022/01/27 07:43:37;;;;;;;;;;;5.00;99.90;;;;;;4929042;28;20088;-70
2022/01/27 07:46:06;;;;;;;;;;;5.10;99.90;;;;;;4939814;28;20099;-68
2022/01/27 07:48:33;;;;;;;;;;;5.10;99.90;;;;;;4957096;28;20069;-69
2022/01/27 07:51:02;;;;;;;;;;;5.10;99.90;;;;;;4947092;28;20159;-69
2022/01/27 07:53:29;;;;;;;;;;;5.20;99.90;;;;;;4947888;28;20085;-70
2022/01/27 07:55:56;;;;;;;;;;;5.20;99.90;;;;;;4946621;28;20085;-70
2022/01/27 07:58:23;;;;;;;;;;;5.20;99.90;;;;;;4946903;28;20069;-70
2022/01/27 08:00:50;;;;;;;;;;;5.30;99.90;;;;;;4963081;28;20077;-70
2022/01/27 08:03:19;;;;;;;;;;;5.30;99.90;;;;;;4947434;28;20061;-70
2022/01/27 08:05:46;;;;;;;;;;;5.30;99.90;;;;;;4963247;28;20080;-70
2022/01/27 08:08:13;;;;;;;;;;;5.30;99.90;;;;;;4947044;28;20150;-69
2022/01/27 08:10:40;;;;;;;;;;;5.30;99.90;;;;;;4946429;28;20078;-70
2022/01/27 08:13:08;;;;;;;;;;;5.30;99.90;;;;;;4946604;28;20074;-70
2022/01/27 08:15:35;;;;;;;;;;;5.40;99.90;;;;;;4947191;28;20077;-68
2022/01/27 08:18:02;;;;;;;;;;;5.40;99.90;;;;;;4947890;28;20179;-70
2022/01/27 08:20:31;;;;;;;;;;;5.40;99.90;;;;;;4952848;28;20085;-69
2022/01/27 08:22:59;;;;;;;;;;;5.30;99.90;;;;;;4934965;28;20102;-69
2022/01/27 08:25:26;;;;;;;;;;;5.30;99.90;;;;;;4930540;28;20622;-69
2022/01/27 08:27:56;;;;;;;;;;;5.30;99.90;;;;;;4947512;28;20165;-70
2022/01/27 08:30:26;;;;;;;;;;;5.30;99.90;;;;;;4946267;28;20061;-70
2022/01/27 08:32:59;;;;;;;;;;;5.30;99.90;;;;;;4942735;28;20086;-69
2022/01/27 08:35:26;;;;;;;;;;;5.30;99.90;;;;;;4937714;28;20198;-69
2022/01/27 08:37:55;;;;;;;;;;;5.30;99.90;;;;;;4937713;28;20115;-69
2022/01/27 08:40:23;;;;;;;;;;;5.30;99.90;;;;;;4952865;28;20078;-70
2022/01/27 08:42:50;;;;;;;;;;;5.30;99.90;;;;;;4943555;28;20061;-70
2022/01/27 08:45:18;;;;;;;;;;;5.30;99.90;;;;;;4926351;28;21055;-69
2022/01/27 08:47:45;;;;;;;;;;;5.30;99.90;;;;;;4927085;28;20173;-70
2022/01/27 08:50:14;;;;;;;;;;;5.20;99.90;;;;;;4925929;28;20070;-69
2022/01/27 08:52:41;;;;;;;;;;;5.20;99.90;;;;;;4928684;28;20069;-70
2022/01/27 08:55:10;;;;;;;;;;;5.20;99.90;;;;;;4930351;28;20070;-70
2022/01/27 08:57:41;;;;;;;;;;;5.20;99.90;;;;;;4943314;28;20077;-70
2022/01/27 09:00:09;;;;;;;;;;;5.20;99.90;;;;;;4925652;28;20156;-70
2022/01/27 09:02:36;;;;;;;;;;;5.20;99.90;;;;;;4927712;28;20086;-69
2022/01/27 09:05:03;;;;;;;;;;;5.20;99.90;;;;;;4925358;28;21025;-70
2022/01/27 09:07:31;;;;;;;;;;;5.20;99.90;;;;;;4943061;28;20086;-69
2022/01/27 09:10:00;;;;;;;;;;;5.20;99.90;;;;;;4929785;28;20118;-70
2022/01/27 09:12:28;;;;;;;;;;;5.20;99.90;;;;;;4944415;28;20076;-70
2022/01/27 09:14:56;;;;;;;;;;;5.20;99.90;;;;;;4960909;28;20074;-70
2022/01/27 09:17:26;;;;;;;;;;;5.20;99.90;;;;;;4946238;28;20216;-70
2022/01/27 09:19:53;;;;;;;;;;;5.20;99.90;;;;;;4945142;28;20076;-70
2022/01/27 09:22:22;;;;;;;;;;;5.10;99.90;;;;;;4946399;28;20076;-70
2022/01/27 09:24:54;;;;;;;;;;;5.10;99.90;;;;;;4944355;28;20080;-70
2022/01/27 09:27:21;;;;;;;;;;;5.10;99.90;;;;;;4946025;28;20068;-70
2022/01/27 09:29:50;;;;;;;;;;;5.00;99.90;;;;;;4944588;28;20076;-70
2022/01/27 09:32:17;;;;;;;;;;;5.00;99.90;;;;;;4961549;28;20196;-69
2022/01/27 09:34:45;;;;;;;;;;;4.90;99.90;;;;;;4945123;28;20216;-69
2022/01/27 09:37:12;;;;;;;;;;;4.80;99.90;;;;;;4945485;28;20308;-70
2022/01/27 09:39:42;;;;;;;;;;;4.80;99.90;;;;;;4943959;28;20085;-70
2022/01/27 09:42:09;;;;;;;;;;;4.70;99.90;;;;;;4945412;28;20060;-69
2022/01/27 09:44:37;;;;;;;;;;;4.70;99.90;;;;;;4961016;28;20070;-69
2022/01/27 09:47:07;;;;;;;;;;;4.70;99.90;;;;;;4945041;28;20079;-69
2022/01/27 09:49:39;;;;;;;;;;;4.80;99.90;;;;;;4960412;28;21064;-70
2022/01/27 09:52:06;;;;;;;;;;;4.80;99.90;;;;;;4945109;28;20098;-70
2022/01/27 09:54:34;;;;;;;;;;;4.80;99.90;;;;;;4960425;28;21122;-68
2022/01/27 09:57:02;;;;;;;;;;;4.80;99.90;;;;;;4944476;28;20142;-70
2022/01/27 09:59:29;;;;;;;;;;;4.80;99.90;;;;;;4944465;28;20078;-69
2022/01/27 10:01:57;;;;;;;;;;;4.80;99.90;;;;;;4945446;28;20070;-69
2022/01/27 10:04:40;;;;;;;;;;;4.80;99.90;;;;;;4944788;28;20146;-70
2022/01/27 10:07:07;;;;;;;;;;;4.90;99.90;;;;;;4962056;28;20078;-70
2022/01/27 10:09:34;;;;;;;;;;;4.90;99.90;;;;;;4944150;28;20094;-70
2022/01/27 10:12:03;;;;;;;;;;;4.90;99.90;;;;;;4945322;28;21948;-70
2022/01/27 10:14:32;;;;;;;;;;;5.00;99.90;;;;;;4944474;28;21059;-70
2022/01/27 10:17:02;;;;;;;;;;;5.00;99.90;;;;;;4945117;28;21023;-70
2022/01/27 10:19:35;;;;;;;;;;;5.00;99.90;;;;;;4943385;28;20069;-70
2022/01/27 10:22:03;;;;;;;;;;;5.00;99.90;;;;;;4961467;28;20171;-70
2022/01/27 10:24:31;;;;;;;;;;;5.00;99.90;;;;;;4944504;28;20076;-71
2022/01/27 10:27:21;;;;;;;;;;;5.00;99.90;;;;;;4944883;28;20071;-70
2022/01/27 10:30:04;;;;;;;;;;;5.10;99.90;;;;;;4944013;28;21093;-70
2022/01/27 10:32:38;;;;;;;;;;;5.10;99.90;;;;;;4960827;28;20068;-69
2022/01/27 10:35:07;;;;;;;;;;;5.10;99.90;;;;;;4946007;28;20080;-70
2022/01/27 10:37:52;;;;;;;;;;;5.20;99.90;;;;;;4962078;28;21170;-71
2022/01/27 10:40:23;;;;;;;;;;;5.20;99.90;;;;;;4925212;28;20104;-70
2022/01/27 10:43:02;;;;;;;;;;;5.30;99.90;;;;;;4932154;28;20181;-70
2022/01/27 10:45:30;;;;;;;;;;;5.30;99.90;;;;;;4941027;28;20073;-70
2022/01/27 10:48:06;;;;;;;;;;;5.30;99.90;;;;;;4921860;28;20094;-68
2022/01/27 10:50:48;;;;;;;;;;;5.30;99.90;;;;;;4923467;28;20176;-70
2022/01/27 10:53:18;;;;;;;;;;;5.30;99.90;;;;;;4939337;28;20069;-70
2022/01/27 10:55:45;;;;;;;;;;;5.40;99.90;;;;;;4937682;28;20096;-70
2022/01/27 10:58:24;;;;;;;;;;;5.30;99.90;;;;;;4933995;28;20074;-70
2022/01/27 11:00:57;;;;;;;;;;;5.30;99.90;;;;;;4943405;28;20958;-70
2022/01/27 11:03:24;;;;;;;;;;;5.40;99.90;;;;;;4944497;28;20184;-71
2022/01/27 11:05:54;;;;;;;;;;;5.40;99.90;;;;;;4931489;28;20136;-70
2022/01/27 11:08:23;;;;;;;;;;;5.40;99.90;;;;;;4933876;28;20069;-70
2022/01/27 11:10:51;;;;;;;;;;;5.40;99.90;;;;;;4939611;28;20271;-69
2022/01/27 11:13:19;;;;;;;;;;;5.40;99.90;;;;;;4935062;28;20076;-70
2022/01/27 11:15:47;;;;;;;;;;;5.50;99.90;;;;;;4933982;28;20284;-70
2022/01/27 11:18:14;;;;;;;;;;;5.50;99.90;;;;;;4925284;28;20189;-68
2022/01/27 11:20:53;;;;;;;;;;;5.50;99.90;;;;;;4931224;28;20062;-70
2022/01/27 11:23:48;;;;;;;;;;;5.70;99.90;;;;;;4940216;28;21155;-70
2022/01/27 11:26:19;;;;;;;;;;;5.70;99.90;;;;;;4928906;28;20085;-70
2022/01/27 11:28:48;;;;;;;;;;;5.70;99.90;;;;;;4937716;28;20070;-70
2022/01/27 11:31:24;;;;;;;;;;;5.70;99.90;;;;;;4939204;28;20190;-70
2022/01/27 11:33:59;;;;;;;;;;;5.70;99.90;;;;;;4939200;28;20070;-69
2022/01/27 11:36:26;;;;;;;;;;;5.70;99.90;;;;;;4943765;28;20172;-69
2022/01/27 11:38:55;;;;;;;;;;;5.70;99.90;;;;;;4958718;28;20277;-69
2022/01/27 11:41:36;;;;;;;;;;;5.70;99.90;;;;;;4959676;28;20208;-69
2022/01/27 11:44:32;;;;;;;;;;;5.70;99.90;;;;;;4954002;28;20161;-70
2022/01/27 11:47:20;;;;;;;;;;;5.80;99.90;;;;;;4904825;28;20173;-69
2022/01/27 11:50:00;;;;;;;;;;;5.80;99.90;;;;;;4942657;28;20152;-70
2022/01/27 11:52:28;;;;;;;;;;;5.80;99.90;;;;;;4927001;28;20087;-69
2022/01/27 11:54:58;;;;;;;;;;;5.80;99.90;;;;;;4927551;28;21160;-69
2022/01/27 11:57:44;;;;;;;;;;;5.80;99.90;;;;;;4943612;28;21283;-69
2022/01/27 12:00:13;;;;;;;;;;;5.80;99.90;;;;;;4927140;28;20254;-69
2022/01/27 12:03:12;;;;;;;;;;;5.80;99.90;;;;;;4927542;28;20077;-69
2022/01/27 12:05:41;;;;;;;;;;;5.80;99.90;;;;;;4867001;29;20086;-70
2022/01/27 12:08:22;;;;;;;;;;;5.90;99.90;;;;;;4910150;28;20173;-69
2022/01/27 12:10:53;;;;;;;;;;;5.90;99.90;;;;;;4940985;28;21097;-70
2022/01/27 12:13:43;;;;;;;;;;;5.90;99.90;;;;;;4962535;28;20083;-70
2022/01/27 12:16:25;;;;;;;;;;;5.90;99.90;;;;;;4963370;28;21181;-70
2022/01/27 12:19:03;;;;;;;;;;;5.90;99.90;;;;;;4945150;28;20076;-69
2022/01/27 12:21:31;;;;;;;;;;;5.90;99.90;;;;;;4943225;28;21117;-69
2022/01/27 12:24:19;;;;;;;;;;;5.90;99.90;;;;;;4943339;28;20077;-69
2022/01/27 12:26:50;;;;;;;;;;;5.90;99.90;;;;;;4926386;28;20076;-69
2022/01/27 12:29:28;;;;;;;;;;;5.90;99.90;;;;;;4941433;28;20069;-69
2022/01/27 12:31:56;;;;;;;;;;;5.90;99.90;;;;;;4942859;28;20160;-69
2022/01/27 12:34:24;;;;;;;;;;;5.90;99.90;;;;;;4942187;28;20079;-69
2022/01/27 12:37:02;;;;;;;;;;;5.90;99.90;;;;;;4942763;28;20083;-70
2022/01/27 12:39:31;;;;;;;;;;;5.90;99.90;;;;;;4924651;28;20067;-70
2022/01/27 12:42:01;;;;;;;;;;;5.90;99.90;;;;;;4943055;28;20078;-69
2022/01/27 12:44:30;;;;;;;;;;;6.00;99.90;;;;;;4942700;28;20077;-69
2022/01/27 12:47:13;;;;;;;;;;;6.10;99.90;;;;;;4942892;28;20079;-70
2022/01/27 12:49:45;;;;;;;;;;;6.10;99.90;;;;;;4940711;28;20078;-70
2022/01/27 12:52:15;;;;;;;;;;;6.10;99.90;;;;;;4943147;28;21068;-69
2022/01/27 12:54:43;;;;;;;;;;;6.20;99.90;;;;;;4946002;28;20095;-69
2022/01/27 12:57:13;;;;;;;;;;;6.20;99.90;;;;;;4952698;28;20078;-70
2022/01/27 12:59:41;;;;;;;;;;;6.20;99.90;;;;;;4960515;28;20060;-69
2022/01/27 13:02:09;;;;;;;;;;;6.20;99.90;;;;;;4961746;28;20084;-69
2022/01/27 13:04:37;;;;;;;;;;;6.20;99.90;;;;;;4945485;28;20069;-70
2022/01/27 13:07:05;;;;;;;;;;;6.20;99.90;;;;;;4940631;28;20100;-70
2022/01/27 13:09:34;;;;;;;;;;;6.20;99.90;;;;;;4941770;28;20142;-70
2022/01/27 13:12:14;;;;;;;;;;;6.20;99.90;;;;;;4933508;28;20231;-70
2022/01/27 13:15:00;;;;;;;;;;;6.20;99.90;;;;;;4945086;28;20113;-70
2022/01/27 13:17:33;;;;;;;;;;;6.20;99.90;;;;;;4941719;28;20168;-70
2022/01/27 13:20:16;;;;;;;;;;;6.10;99.90;;;;;;4933424;28;20076;-70
2022/01/27 13:22:51;;;;;;;;;;;6.10;99.90;;;;;;4943488;28;20097;-70
2022/01/27 13:25:20;;;;;;;;;;;6.10;99.90;;;;;;4940616;28;20061;-70
2022/01/27 13:30:42;;;;;;;;;;;6.10;99.90;;;;;;5094675;27;21144;-69
2022/01/27 13:33:13;;;;;;;;;;;6.20;99.90;;;;;;5091128;27;20067;-69
2022/01/27 13:35:40;;;;;;;;;;;6.20;99.90;;;;;;5100501;27;21204;-68
2022/01/27 13:38:08;;;;;;;;;;;6.20;99.90;;;;;;5064876;28;20066;-70
2022/01/27 13:43:21;;;;;;;;;;;6.20;99.90;;;;;;5061570;28;20069;-69
2022/01/27 13:45:50;;;;;;;;;;;6.20;99.90;;;;;;5061143;28;20067;-70
2022/01/27 13:48:18;;;;;;;;;;;6.20;99.90;;;;;;5060369;28;20059;-69
2022/01/27 13:50:53;;;;;;;;;;;6.20;99.90;;;;;;5058914;28;20148;-69
2022/01/27 13:53:20;;;;;;;;;;;6.20;99.90;;;;;;5059878;28;20073;-68
2022/01/27 13:55:55;;;;;;;;;;;6.20;99.90;;;;;;5060507;28;20075;-69
2022/01/27 13:58:25;;;;;;;;;;;6.30;99.90;;;;;;5060247;28;20060;-70
2022/01/27 14:01:03;;;;;;;;;;;6.30;99.90;;;;;;5059158;28;20061;-70
2022/01/27 14:03:40;;;;;;;;;;;6.30;99.90;;;;;;5059597;28;20059;-69
2022/01/27 14:06:07;;;;;;;;;;;6.30;99.90;;;;;;5060430;28;20074;-70
2022/01/27 14:08:35;;;;;;;;;;;6.30;99.90;;;;;;5060149;28;20091;-70
2022/01/27 14:11:02;;;;;;;;;;;6.30;99.90;;;;;;5058767;28;20082;-70
2022/01/27 14:13:29;;;;;;;;;;;6.40;99.90;;;;;;5059779;28;21108;-69
2022/01/27 14:15:58;;;;;;;;;;;6.40;99.90;;;;;;5059423;28;20145;-69
2022/01/27 14:18:26;;;;;;;;;;;6.40;99.90;;;;;;5059173;28;20059;-70
2022/01/27 14:20:55;;;;;;;;;;;6.40;99.90;;;;;;5059366;28;20068;-69
2022/01/27 14:23:32;;;;;;;;;;;6.50;99.90;;;;;;5059869;28;20067;-69
2022/01/27 14:26:05;;;;;;;;;;;6.50;99.90;;;;;;5059219;28;20068;-69
2022/01/27 14:28:32;;;;;;;;;;;6.50;99.90;;;;;;5062039;27;20074;-70
2022/01/27 14:31:01;;;;;;;;;;;6.50;99.90;;;;;;5061493;28;20219;-70
2022/01/27 14:33:29;;;;;;;;;;;6.50;99.90;;;;;;5062907;28;20067;-68
2022/01/27 14:35:56;;;;;;;;;;;6.60;99.90;;;;;;5062310;28;20082;-71
2022/01/27 14:38:23;;;;;;;;;;;6.60;99.90;;;;;;5062944;28;20068;-71
2022/01/27 14:40:50;;;;;;;;;;;6.60;99.90;;;;;;5054648;28;20067;-70
2022/01/27 14:43:17;;;;;;;;;;;6.60;99.90;;;;;;5049529;28;20060;-70
2022/01/27 14:45:46;;;;;;;;;;;6.60;99.90;;;;;;5049435;28;21265;-70
2022/01/27 14:48:15;;;;;;;;;;;6.60;99.90;;;;;;5047769;27;21310;-70
2022/01/27 14:50:42;;;;;;;;;;;6.60;99.90;;;;;;5068758;27;21167;-70
2022/01/27 14:53:09;;;;;;;;;;;6.60;99.90;;;;;;5051528;28;20197;-69
2022/01/27 14:55:36;;;;;;;;;;;6.60;99.90;;;;;;5065351;28;20079;-69
2022/01/27 14:58:04;;;;;;;;;;;6.60;99.90;;;;;;5048821;28;20218;-69
2022/01/27 15:00:31;;;;;;;;;;;6.60;99.90;;;;;;5047776;28;20126;-70
2022/01/27 15:02:59;;;;;;;;;;;6.60;99.90;;;;;;5052458;28;20083;-70
2022/01/27 15:05:28;;;;;;;;;;;6.60;99.90;;;;;;5048268;28;20086;-69
2022/01/27 15:07:55;;;;;;;;;;;6.70;99.90;;;;;;5048411;28;20067;-70
2022/01/27 15:10:23;;;;;;;;;;;6.70;99.90;;;;;;5047791;28;20059;-69